createdAt,value
2023-02-09T00:01:18.044Z,103161.47
2023-02-09T00:03:46.092Z,103169.47
2023-02-09T00:06:17.023Z,103162.44
2023-02-09T00:08:45.425Z,103163.41
2023-02-09T00:11:16.517Z,103155.69
2023-02-09T00:13:43.642Z,103163.81
2023-02-09T00:16:11.732Z,103161.00
2023-02-09T00:18:39.571Z,103170.72
2023-02-09T00:21:10.691Z,103170.97
2023-02-09T00:23:42.193Z,103169.28
2023-02-09T00:26:12.051Z,103169.53
2023-02-09T00:28:39.798Z,103165.06
2023-02-09T00:31:08.526Z,103162.38
2023-02-09T00:33:37.085Z,103159.72
2023-02-09T00:36:06.805Z,103165.91
2023-02-09T00:38:35.688Z,103163.38
2023-02-09T00:41:05.017Z,103166.03
2023-02-09T00:43:33.019Z,103171.50
2023-02-09T00:46:01.073Z,103168.25
2023-02-09T00:48:29.449Z,103176.00
2023-02-09T00:50:57.247Z,103173.44
2023-02-09T00:53:25.185Z,103171.63
2023-02-09T00:55:52.934Z,103181.44
2023-02-09T00:58:22.173Z,103178.91
2023-02-09T01:00:50.043Z,103169.50
2023-02-09T01:03:17.860Z,103179.03
2023-02-09T01:05:45.676Z,103165.84
2023-02-09T01:08:13.403Z,103169.50
2023-02-09T01:10:41.188Z,103167.78
2023-02-09T01:13:08.912Z,103169.63
2023-02-09T01:15:40.244Z,103173.41
2023-02-09T01:18:08.433Z,103170.84
2023-02-09T01:20:36.493Z,103168.31
2023-02-09T01:23:04.293Z,103160.59
2023-02-09T01:25:32.114Z,103157.06
2023-02-09T01:27:59.928Z,103159.88
2023-02-09T01:30:28.293Z,103167.88
2023-02-09T01:32:57.451Z,103167.03
2023-02-09T01:35:25.120Z,103167.16
2023-02-09T01:37:52.846Z,103167.16
2023-02-09T01:40:20.616Z,103174.31
2023-02-09T01:42:48.329Z,103165.47
2023-02-09T01:45:22.202Z,103166.56
2023-02-09T01:47:55.446Z,103164.88
2023-02-09T01:50:26.027Z,103169.34
2023-02-09T01:52:54.302Z,103168.50
2023-02-09T01:55:25.998Z,103167.66
2023-02-09T01:57:57.384Z,103160.66
2023-02-09T02:00:27.044Z,103157.31
2023-02-09T02:02:58.567Z,103143.97
2023-02-09T02:05:29.231Z,103143.13
2023-02-09T02:08:02.319Z,103148.59
2023-02-09T02:10:30.566Z,103148.59
2023-02-09T02:12:58.930Z,103152.09
2023-02-09T02:15:30.230Z,103143.50
2023-02-09T02:18:18.888Z,103146.19
2023-02-09T02:21:19.273Z,103143.66
2023-02-09T02:24:03.395Z,103148.13
2023-02-09T02:26:53.005Z,103128.69
2023-02-09T02:30:13.338Z,103141.25
2023-02-09T02:33:01.313Z,103133.38
2023-02-09T02:35:35.444Z,103131.69
2023-02-09T02:38:16.249Z,103132.78
2023-02-09T02:40:54.220Z,103128.31
2023-02-09T02:43:35.068Z,103124.91
2023-02-09T02:46:06.653Z,103122.25
2023-02-09T02:48:41.965Z,103122.38
2023-02-09T02:51:15.837Z,103116.34
2023-02-09T02:53:48.793Z,103115.50
2023-02-09T02:56:20.002Z,103115.38
2023-02-09T02:58:50.228Z,103113.69
2023-02-09T03:01:23.094Z,103119.00
2023-02-09T03:03:54.628Z,103105.69
2023-02-09T03:06:22.396Z,103112.84
2023-02-09T03:08:52.620Z,103100.63
2023-02-09T03:11:21.884Z,103117.31
2023-02-09T03:14:10.648Z,103112.13
2023-02-09T03:16:44.449Z,103112.13
2023-02-09T03:19:31.478Z,103117.56
2023-02-09T03:22:04.562Z,103110.56
2023-02-09T03:24:37.970Z,103104.25
2023-02-09T03:27:14.757Z,103107.19
2023-02-09T03:29:45.849Z,103114.19
2023-02-09T03:32:14.511Z,103121.34
2023-02-09T03:34:43.902Z,103105.03
2023-02-09T03:37:11.750Z,103112.63
2023-02-09T03:39:39.672Z,103118.09
2023-02-09T03:42:08.048Z,103109.38
2023-02-09T03:44:35.799Z,103106.72
2023-02-09T03:47:05.510Z,103095.22
2023-02-09T03:49:35.518Z,103106.00
2023-02-09T03:52:04.986Z,103112.31
2023-02-09T03:54:33.692Z,103109.78
2023-02-09T03:57:01.984Z,103103.72
2023-02-09T03:59:30.302Z,103099.38
2023-02-09T04:02:00.111Z,103100.94
2023-02-09T04:04:28.060Z,103102.88
2023-02-09T04:06:56.158Z,103099.38
2023-02-09T04:09:26.003Z,103088.84
2023-02-09T04:11:54.001Z,103082.66
2023-02-09T04:14:21.837Z,103078.31
2023-02-09T04:16:49.602Z,103068.50
2023-02-09T04:19:17.399Z,103064.03
2023-02-09T04:21:45.108Z,103066.81
2023-02-09T04:24:13.149Z,103066.94
2023-02-09T04:26:42.262Z,103067.91
2023-02-09T04:29:10.029Z,103068.75
2023-02-09T04:31:37.884Z,103060.06
2023-02-09T04:34:05.648Z,103052.06
2023-02-09T04:36:33.325Z,103047.59
2023-02-09T04:39:01.032Z,103053.03
2023-02-09T04:41:28.772Z,103061.03
2023-02-09T04:43:57.843Z,103057.66
2023-02-09T04:46:25.602Z,103061.16
2023-02-09T04:48:53.325Z,103061.28
2023-02-09T04:51:21.105Z,103053.69
2023-02-09T04:53:48.865Z,103049.91
2023-02-09T04:56:17.806Z,103050.91
2023-02-09T04:59:03.719Z,103046.53
2023-02-09T05:01:33.793Z,103050.19
2023-02-09T05:04:01.549Z,103051.16
2023-02-09T05:06:29.420Z,103051.88
2023-02-09T05:08:57.130Z,103049.34
2023-02-09T05:11:25.719Z,103055.88
2023-02-09T05:13:53.696Z,103070.75
2023-02-09T05:16:21.432Z,103069.06
2023-02-09T05:18:51.131Z,103070.03
2023-02-09T05:21:18.918Z,103070.03
2023-02-09T05:23:46.671Z,103079.72
2023-02-09T05:26:14.426Z,103078.03
2023-02-09T05:28:42.139Z,103062.44
2023-02-09T05:31:09.951Z,103076.59
2023-02-09T05:33:37.706Z,103075.75
2023-02-09T05:36:09.518Z,103071.28
2023-02-09T05:38:37.732Z,103070.44
2023-02-09T05:41:06.639Z,103067.91
2023-02-09T05:43:34.504Z,103075.88
2023-02-09T05:46:02.404Z,103078.53
2023-02-09T05:48:30.484Z,103069.84
2023-02-09T05:50:58.205Z,103066.59
2023-02-09T05:53:27.276Z,103085.81
2023-02-09T05:55:56.123Z,103090.28
2023-02-09T05:58:23.909Z,103095.63
2023-02-09T06:00:51.622Z,103098.41
2023-02-09T06:03:19.360Z,103097.19
2023-02-09T06:05:47.175Z,103100.66
2023-02-09T06:08:14.936Z,103094.56
2023-02-09T06:10:44.517Z,103097.03
2023-02-09T06:13:12.426Z,103099.63
2023-02-09T06:15:40.157Z,103087.09
2023-02-09T06:18:07.944Z,103077.88
2023-02-09T06:20:35.639Z,103069.81
2023-02-09T06:23:03.354Z,103066.66
2023-02-09T06:25:31.513Z,103065.00
2023-02-09T06:28:00.593Z,103062.19
2023-02-09T06:30:28.311Z,103054.16
2023-02-09T06:32:56.004Z,103053.53
2023-02-09T06:35:23.764Z,103054.47
2023-02-09T06:37:51.430Z,103064.41
2023-02-09T06:40:20.040Z,103062.38
2023-02-09T06:42:47.768Z,103073.19
2023-02-09T06:45:18.411Z,103085.47
2023-02-09T06:47:47.106Z,103075.84
2023-02-09T06:50:16.984Z,103083.56
2023-02-09T06:52:45.251Z,103106.56
2023-02-09T06:55:13.219Z,103101.38
2023-02-09T06:57:41.421Z,103096.28
2023-02-09T07:00:11.183Z,103108.19
2023-02-09T07:02:42.756Z,103101.28
2023-02-09T07:05:10.763Z,103109.53
2023-02-09T07:07:39.006Z,103103.47
2023-02-09T07:10:08.855Z,103107.97
2023-02-09T07:12:37.614Z,103116.34
2023-02-09T07:15:06.566Z,103124.44
2023-02-09T07:17:34.842Z,103123.84
2023-02-09T07:20:04.276Z,103133.66
2023-02-09T07:22:32.055Z,103140.78
2023-02-09T07:24:59.730Z,103141.75
2023-02-09T07:27:27.644Z,103147.94
2023-02-09T07:29:55.346Z,103144.56
2023-02-09T07:32:23.971Z,103148.19
2023-02-09T07:34:51.738Z,103141.03
2023-02-09T07:37:20.952Z,103147.59
2023-02-09T07:39:48.776Z,103147.22
2023-02-09T07:42:16.557Z,103141.72
2023-02-09T07:44:44.234Z,103132.47
2023-02-09T07:47:12.022Z,103137.38
2023-02-09T07:49:39.726Z,103139.78
2023-02-09T07:52:07.434Z,103138.94
2023-02-09T07:54:36.516Z,103147.19
2023-02-09T07:57:04.472Z,103150.50
2023-02-09T07:59:32.180Z,103143.72
2023-02-09T08:01:59.982Z,103139.88
2023-02-09T08:04:27.830Z,103133.97
2023-02-09T08:06:56.328Z,103143.91
2023-02-09T08:09:24.125Z,103145.13
2023-02-09T08:11:57.097Z,103139.19
2023-02-09T08:14:28.866Z,103139.31
2023-02-09T08:17:13.526Z,103142.97
2023-02-09T08:19:41.840Z,103149.38
2023-02-09T08:22:09.724Z,103143.34
2023-02-09T08:24:37.657Z,103150.47
2023-02-09T08:27:06.761Z,103135.38
2023-02-09T08:29:34.621Z,103148.06
2023-02-09T08:32:02.490Z,103155.06
2023-02-09T08:34:30.289Z,103158.72
2023-02-09T08:36:57.964Z,103149.88
2023-02-09T08:39:25.851Z,103142.00
2023-02-09T08:41:53.545Z,103141.03
2023-02-09T08:44:22.639Z,103142.00
2023-02-09T08:46:50.649Z,103136.69
2023-02-09T08:49:18.444Z,103119.88
2023-02-09T08:51:46.167Z,103126.03
2023-02-09T08:54:13.917Z,103128.81
2023-02-09T08:56:42.803Z,103119.28
2023-02-09T08:59:10.563Z,103125.06
2023-02-09T09:01:40.516Z,103126.50
2023-02-09T09:04:08.802Z,103128.41
2023-02-09T09:06:36.985Z,103125.47
2023-02-09T09:09:04.979Z,103124.91
2023-02-09T09:11:32.801Z,103136.69
2023-02-09T09:14:00.602Z,103113.94
2023-02-09T09:16:28.382Z,103122.41
2023-02-09T09:18:57.546Z,103119.84
2023-02-09T09:21:25.320Z,103120.59
2023-02-09T09:23:53.078Z,103125.19
2023-02-09T09:26:21.324Z,103126.66
2023-02-09T09:28:51.064Z,103143.00
2023-02-09T09:31:19.994Z,103138.84
2023-02-09T09:33:48.024Z,103136.19
2023-02-09T09:36:17.152Z,103143.06
2023-02-09T09:38:44.936Z,103153.06
2023-02-09T09:41:22.117Z,103132.25
2023-02-09T09:43:50.271Z,103143.78
2023-02-09T09:46:21.110Z,103131.72
2023-02-09T09:48:52.569Z,103120.03
2023-02-09T09:51:29.830Z,103122.44
2023-02-09T09:54:00.469Z,103114.13
2023-02-09T09:56:31.072Z,103124.69
2023-02-09T09:59:00.847Z,103137.19
2023-02-09T10:01:31.429Z,103127.22
2023-02-09T10:04:01.938Z,103137.75
2023-02-09T10:06:33.777Z,103149.84
2023-02-09T10:09:05.227Z,103162.94
2023-02-09T10:11:38.290Z,103158.44
2023-02-09T10:14:06.082Z,103156.75
2023-02-09T10:16:38.173Z,103165.19
2023-02-09T10:19:17.452Z,103169.13
2023-02-09T10:21:46.652Z,103166.59
2023-02-09T10:24:17.096Z,103172.22
2023-02-09T10:26:44.837Z,103172.63
2023-02-09T10:29:26.613Z,103182.72
2023-02-09T10:32:05.123Z,103192.38
2023-02-09T10:34:41.989Z,103185.59
2023-02-09T10:37:21.574Z,103179.78
2023-02-09T10:39:57.438Z,103172.75
2023-02-09T10:42:30.182Z,103167.94
2023-02-09T10:45:05.593Z,103170.53
2023-02-09T10:47:33.496Z,103171.78
2023-02-09T10:50:06.645Z,103171.34
2023-02-09T10:52:37.331Z,103166.53
2023-02-09T10:55:08.106Z,103164.00
2023-02-09T10:57:37.830Z,103165.81
2023-02-09T11:00:26.642Z,103182.94
2023-02-09T11:02:57.668Z,103183.34
2023-02-09T11:05:29.854Z,103174.75
2023-02-09T11:08:04.191Z,103173.19
2023-02-09T11:10:37.879Z,103172.59
2023-02-09T11:13:17.610Z,103172.03
2023-02-09T11:15:55.518Z,103167.78
2023-02-09T11:18:27.561Z,103167.09
2023-02-09T11:21:00.579Z,103163.69
2023-02-09T11:23:44.494Z,103169.63
2023-02-09T11:26:22.730Z,103165.13
2023-02-09T11:29:00.335Z,103167.94
2023-02-09T11:31:47.837Z,103162.72
2023-02-09T11:34:33.022Z,103163.84
2023-02-09T11:37:11.147Z,103161.28
2023-02-09T11:39:45.435Z,103157.53
2023-02-09T11:42:36.565Z,103175.94
2023-02-09T11:45:09.396Z,103167.47
2023-02-09T11:47:49.711Z,103180.28
2023-02-09T11:50:26.005Z,103167.47
2023-02-09T11:52:57.244Z,103168.06
2023-02-09T11:55:30.386Z,103178.47
2023-02-09T11:58:09.793Z,103170.06
2023-02-09T12:00:55.921Z,103183.19
2023-02-09T12:03:25.538Z,103180.38
2023-02-09T12:05:53.850Z,103183.16
2023-02-09T12:08:49.970Z,103178.72
2023-02-09T12:11:31.763Z,103168.09
2023-02-09T12:14:12.360Z,103164.34
2023-02-09T12:16:45.323Z,103167.88
2023-02-09T12:19:29.263Z,103164.34
2023-02-09T12:21:56.967Z,103152.94
2023-02-09T12:24:34.144Z,103161.94
2023-02-09T12:27:03.364Z,103162.19
2023-02-09T12:29:43.432Z,103162.28
2023-02-09T12:32:27.259Z,103169.88
2023-02-09T12:34:56.660Z,103162.28
2023-02-09T12:37:27.843Z,103160.00
2023-02-09T12:40:23.749Z,103166.47
2023-02-09T12:43:26.292Z,103159.72
2023-02-09T12:46:26.621Z,103167.97
2023-02-09T12:49:07.588Z,103165.44
2023-02-09T12:51:56.057Z,103169.09
2023-02-09T12:54:41.471Z,103160.50
2023-02-09T12:57:49.645Z,103164.16
2023-02-09T13:00:40.999Z,103159.84
2023-02-09T13:03:14.079Z,103157.38
2023-02-09T13:05:45.832Z,103150.25
2023-02-09T13:08:21.860Z,103152.38
2023-02-09T13:10:56.424Z,103145.06
2023-02-09T13:13:34.089Z,103139.56
2023-02-09T13:16:28.031Z,103133.47
2023-02-09T13:19:01.869Z,103126.25
2023-02-09T13:21:38.892Z,103123.16
2023-02-09T13:24:09.864Z,103126.25
2023-02-09T13:26:38.972Z,103119.69
2023-02-09T13:29:19.776Z,103118.72
2023-02-09T13:31:58.826Z,103118.34
2023-02-09T13:34:35.100Z,103115.69
2023-02-09T13:37:16.235Z,103115.69
2023-02-09T13:39:44.842Z,103117.22
2023-02-09T13:42:19.256Z,103109.63
2023-02-09T13:44:48.959Z,103113.56
2023-02-09T13:47:18.506Z,103113.00
2023-02-09T13:49:57.102Z,103117.78
2023-02-09T13:52:26.763Z,103116.22
2023-02-09T13:54:55.349Z,103133.38
2023-02-09T13:57:33.121Z,103138.16
2023-02-09T14:00:09.469Z,103135.03
2023-02-09T14:02:39.509Z,103136.16
2023-02-09T14:05:09.222Z,103133.94
2023-02-09T14:07:38.950Z,103130.56
2023-02-09T14:10:13.629Z,103126.50
2023-02-09T14:12:56.692Z,103138.88
2023-02-09T14:15:48.302Z,103137.84
2023-02-09T14:18:40.733Z,103139.91
2023-02-09T14:21:37.552Z,103147.47
2023-02-09T14:24:27.339Z,103150.78
2023-02-09T14:26:59.361Z,103144.72
2023-02-09T14:29:29.029Z,103147.16
2023-02-09T14:31:59.453Z,103144.66
2023-02-09T14:34:35.225Z,103143.72
2023-02-09T14:37:05.802Z,103147.13
2023-02-09T14:39:33.579Z,103153.63
2023-02-09T14:42:18.206Z,103162.34
2023-02-09T14:44:47.474Z,103158.69
2023-02-09T14:47:29.858Z,103165.34
2023-02-09T14:49:59.575Z,103163.22
2023-02-09T14:52:28.981Z,103167.16
2023-02-09T14:54:59.239Z,103162.94
2023-02-09T14:57:30.567Z,103150.97
2023-02-09T14:59:58.286Z,103151.28
2023-02-09T15:02:28.674Z,103148.84
2023-02-09T15:04:56.553Z,103145.16
2023-02-09T15:07:32.457Z,103159.47
2023-02-09T15:10:00.207Z,103153.06
2023-02-09T15:12:30.126Z,103153.31
2023-02-09T15:15:00.321Z,103162.28
2023-02-09T15:17:31.121Z,103152.16
2023-02-09T15:19:59.732Z,103162.91
2023-02-09T15:22:29.011Z,103153.66
2023-02-09T15:24:57.631Z,103155.94
2023-02-09T15:27:28.071Z,103166.81
2023-02-09T15:29:59.716Z,103171.19
2023-02-09T15:32:28.841Z,103174.44
2023-02-09T15:34:56.604Z,103164.59
2023-02-09T15:37:27.405Z,103178.94
2023-02-09T15:39:59.547Z,103174.88
2023-02-09T15:42:50.282Z,103180.06
2023-02-09T15:45:37.774Z,103185.59
2023-02-09T15:48:06.170Z,103190.22
2023-02-09T15:50:35.655Z,103197.56
2023-02-09T15:53:05.685Z,103209.50
2023-02-09T15:55:36.834Z,103210.63
2023-02-09T15:58:12.451Z,103211.75
2023-02-09T16:00:40.289Z,103203.16
2023-02-09T16:03:15.210Z,103208.50
2023-02-09T16:05:43.051Z,103212.31
2023-02-09T16:08:18.543Z,103214.97
2023-02-09T16:10:48.388Z,103222.44
2023-02-09T16:13:17.327Z,103221.59
2023-02-09T16:15:45.657Z,103225.81
2023-02-09T16:18:13.398Z,103219.47
2023-02-09T16:20:47.011Z,103223.97
2023-02-09T16:23:20.873Z,103231.00
2023-02-09T16:25:51.707Z,103236.50
2023-02-09T16:28:19.870Z,103234.81
2023-02-09T16:30:50.070Z,103235.50
2023-02-09T16:33:18.367Z,103240.00
2023-02-09T16:35:50.119Z,103234.94
2023-02-09T16:38:19.294Z,103232.41
2023-02-09T16:40:47.653Z,103248.31
2023-02-09T16:43:17.136Z,103247.03
2023-02-09T16:46:01.147Z,103251.69
2023-02-09T16:48:34.395Z,103241.53
2023-02-09T16:51:02.252Z,103259.84
2023-02-09T16:53:33.861Z,103266.16
2023-02-09T16:56:03.844Z,103266.16
2023-02-09T16:58:33.785Z,103268.56
2023-02-09T17:01:01.664Z,103267.16
2023-02-09T17:03:33.796Z,103274.75
2023-02-09T17:06:02.503Z,103286.03
2023-02-09T17:08:34.580Z,103278.56
2023-02-09T17:11:04.074Z,103275.78
2023-02-09T17:13:33.212Z,103288.31
2023-02-09T17:16:02.837Z,103275.06
2023-02-09T17:18:33.687Z,103288.00
2023-02-09T17:21:03.700Z,103285.56
2023-02-09T17:23:32.067Z,103292.16
2023-02-09T17:26:00.557Z,103297.25
2023-02-09T17:28:28.986Z,103301.94
2023-02-09T17:31:00.677Z,103307.59
2023-02-09T17:33:30.658Z,103310.69
2023-02-09T17:38:47.205Z,103318.59
2023-02-09T17:41:17.674Z,103327.88
2023-02-09T17:43:45.408Z,103325.91
2023-02-09T17:46:16.419Z,103328.72
2023-02-09T17:48:45.316Z,103335.31
2023-02-09T17:51:20.776Z,103335.72
2023-02-09T17:53:48.869Z,103333.34
2023-02-09T17:56:16.972Z,103336.28
2023-02-09T17:58:45.245Z,103336.56
2023-02-09T18:01:26.169Z,103335.84
2023-02-09T18:03:54.775Z,103336.28
2023-02-09T18:06:25.987Z,103338.44
2023-02-09T18:08:53.711Z,103332.94
2023-02-09T18:11:21.468Z,103335.63
2023-02-09T18:13:49.194Z,103332.38
2023-02-09T18:16:16.945Z,103323.59
2023-02-09T18:18:47.138Z,103331.03
2023-02-09T18:21:15.508Z,103340.31
2023-02-09T18:23:43.336Z,103339.75
2023-02-09T18:26:11.120Z,103346.25
2023-02-09T18:28:38.822Z,103345.41
2023-02-09T18:31:07.234Z,103350.09
2023-02-09T18:33:34.969Z,103342.38
2023-02-09T18:36:04.095Z,103343.38
2023-02-09T18:38:31.810Z,103351.81
2023-02-09T18:40:59.520Z,103339.28
2023-02-09T18:43:27.489Z,103350.13
2023-02-09T18:45:55.270Z,103359.72
2023-02-09T18:48:23.021Z,103370.69
2023-02-09T18:50:50.757Z,103372.94
2023-02-09T18:53:22.135Z,103366.19
2023-02-09T18:55:52.032Z,103378.16
2023-02-09T18:58:20.097Z,103375.75
2023-02-09T19:00:47.792Z,103384.34
2023-02-09T19:03:17.706Z,103364.47
2023-02-09T19:05:45.799Z,103374.91
2023-02-09T19:08:13.980Z,103373.78
2023-02-09T19:10:44.228Z,103373.91
2023-02-09T19:13:12.197Z,103382.94
2023-02-09T19:15:40.926Z,103386.59
2023-02-09T19:18:08.754Z,103382.19
2023-02-09T19:20:36.975Z,103388.81
2023-02-09T19:23:06.714Z,103379.25
2023-02-09T19:25:34.688Z,103383.91
2023-02-09T19:28:03.802Z,103387.72
2023-02-09T19:30:31.862Z,103393.38
2023-02-09T19:33:00.151Z,103402.09
2023-02-09T19:35:29.289Z,103404.38
2023-02-09T19:37:58.285Z,103400.84
2023-02-09T19:40:36.189Z,103406.47
2023-02-09T19:43:05.976Z,103411.25
2023-02-09T19:45:37.522Z,103409.00
2023-02-09T19:48:06.585Z,103414.06
2023-02-09T19:50:34.399Z,103412.66
2023-02-09T19:53:02.902Z,103417.44
2023-02-09T19:55:30.875Z,103414.19
2023-02-09T19:57:59.161Z,103421.50
2023-02-09T20:00:28.556Z,103427.84
2023-02-09T20:02:56.276Z,103429.81
2023-02-09T20:05:24.086Z,103431.91
2023-02-09T20:07:53.660Z,103438.38
2023-02-09T20:10:23.905Z,103437.66
2023-02-09T20:12:52.084Z,103441.31
2023-02-09T20:15:19.859Z,103438.66
2023-02-09T20:17:48.995Z,103447.66
2023-02-09T20:20:17.047Z,103442.44
2023-02-09T20:22:44.788Z,103442.44
2023-02-09T20:25:14.331Z,103440.88
2023-02-09T20:27:42.080Z,103440.03
2023-02-09T20:30:11.073Z,103442.84
2023-02-09T20:32:39.128Z,103433.97
2023-02-09T20:35:08.726Z,103437.63
2023-02-09T20:37:36.485Z,103436.78
2023-02-09T20:40:05.216Z,103436.78
2023-02-09T20:42:50.507Z,103439.59
2023-02-09T20:45:35.992Z,103438.88
2023-02-09T20:48:05.492Z,103450.56
2023-02-09T20:50:37.325Z,103447.19
2023-02-09T20:53:05.153Z,103461.38
2023-02-09T20:55:32.921Z,103460.53
2023-02-09T20:58:00.669Z,103464.19
2023-02-09T21:00:28.447Z,103462.50
2023-02-09T21:02:56.208Z,103462.63
2023-02-09T21:05:24.027Z,103458.13
2023-02-09T21:07:53.226Z,103455.59
2023-02-09T21:10:20.919Z,103465.44
2023-02-09T21:12:49.058Z,103464.75
2023-02-09T21:15:17.113Z,103466.44
2023-02-09T21:17:47.891Z,103470.22
2023-02-09T21:20:16.362Z,103472.19
2023-02-09T21:22:44.443Z,103475.84
2023-02-09T21:25:14.040Z,103472.31
2023-02-09T21:27:41.790Z,103476.97
2023-02-09T21:30:10.406Z,103479.78
2023-02-09T21:32:38.431Z,103479.78
2023-02-09T21:35:10.113Z,103478.81
2023-02-09T21:37:38.976Z,103474.69
2023-02-09T21:40:07.823Z,103487.81
2023-02-09T21:42:37.042Z,103483.44
2023-02-09T21:45:06.360Z,103487.94
2023-02-09T21:47:37.936Z,103494.13
2023-02-09T21:50:07.201Z,103488.91
2023-02-09T21:52:35.406Z,103493.41
2023-02-09T21:55:03.262Z,103493.41
2023-02-09T21:57:31.006Z,103494.25
2023-02-09T22:00:04.519Z,103499.75
2023-02-09T22:02:32.528Z,103506.78
2023-02-09T22:05:00.264Z,103487.34
2023-02-09T22:07:28.741Z,103492.69
2023-02-09T22:09:56.687Z,103501.69
2023-02-09T22:12:24.434Z,103504.38
2023-02-09T22:14:52.213Z,103497.19
2023-02-09T22:17:21.370Z,103500.84
2023-02-09T22:19:49.075Z,103499.28
2023-02-09T22:22:16.805Z,103500.13
2023-02-09T22:24:44.500Z,103501.25
2023-02-09T22:27:12.245Z,103493.22
2023-02-09T22:29:40.023Z,103495.19
2023-02-09T22:32:07.746Z,103490.81
2023-02-09T22:34:37.038Z,103483.78
2023-02-09T22:37:04.744Z,103488.28
2023-02-09T22:39:32.668Z,103491.81
2023-02-09T22:42:00.997Z,103483.91
2023-02-09T22:44:30.097Z,103489.38
2023-02-09T22:46:58.053Z,103492.19
2023-02-09T22:49:25.783Z,103485.28
2023-02-09T22:51:54.879Z,103486.97
2023-02-09T22:54:22.661Z,103498.38
2023-02-09T22:56:50.525Z,103495.13
2023-02-09T22:59:18.302Z,103495.97
2023-02-09T23:01:46.156Z,103492.59
2023-02-09T23:04:14.016Z,103496.25
2023-02-09T23:06:41.737Z,103505.22
2023-02-09T23:09:12.946Z,103499.16
2023-02-09T23:11:40.794Z,103501.00
2023-02-09T23:14:10.487Z,103512.66
2023-02-09T23:16:39.405Z,103502.94
2023-02-09T23:19:08.691Z,103504.78
2023-02-09T23:21:39.138Z,103503.22
2023-02-09T23:24:07.511Z,103507.72
2023-02-09T23:26:37.252Z,103511.34
2023-02-09T23:29:08.800Z,103504.31
2023-02-09T23:31:37.092Z,103507.97
2023-02-09T23:34:05.515Z,103509.78
2023-02-09T23:36:34.901Z,103518.78
2023-02-09T23:39:05.403Z,103503.72
2023-02-09T23:41:33.867Z,103506.53
2023-02-09T23:44:03.505Z,103509.22
2023-02-09T23:46:31.289Z,103506.53
2023-02-09T23:48:59.205Z,103512.84
2023-02-09T23:51:29.689Z,103502.56
2023-02-09T23:53:58.887Z,103507.63
2023-02-09T23:56:28.031Z,103514.81
2023-02-09T23:58:55.968Z,103513.13
